Weather at Podgorica Airport / Podgorica Golubovci Airbase

Public forecast

Using degrees Celsius for public forecast. Weather courtesy of forecast.io.

Current aviation weather report (METAR) for Podgorica Airport / Podgorica Golubovci Airbase

2024/05/18 09:00 (retrieved 36 minutes ago)

LYPG 180900Z VRB01KT CAVOK 25/13 Q1015 NOSIG

Aviation forecast (TAF) for Podgorica Airport / Podgorica Golubovci Airbase

2024/05/18 06:21 (retrieved 3 hours ago)

TAF LYPG 180500Z 1806/1906 16007KT 9999 SCT040 TX28/1813Z TN15/1904Z